sensor_id;sensor_type;location;lat;lon;timestamp;P1;durP1;ratioP1;P2;durP2;ratioP2
15142;SDS011;7672;50.834;6.286;2023-07-20T00:00:45;6.60;;;4.00;;
15142;SDS011;7672;50.834;6.286;2023-07-20T00:03:13;5.67;;;3.60;;
15142;SDS011;7672;50.834;6.286;2023-07-20T00:05:45;5.03;;;3.40;;
15142;SDS011;7672;50.834;6.286;2023-07-20T00:08:13;4.93;;;3.80;;
15142;SDS011;7672;50.834;6.286;2023-07-20T00:10:40;4.30;;;3.90;;
15142;SDS011;7672;50.834;6.286;2023-07-20T00:13:08;4.50;;;4.07;;
15142;SDS011;7672;50.834;6.286;2023-07-20T00:15:37;6.70;;;4.10;;
15142;SDS011;7672;50.834;6.286;2023-07-20T00:18:04;4.90;;;3.70;;
15142;SDS011;7672;50.834;6.286;2023-07-20T00:20:32;5.97;;;3.80;;
15142;SDS011;7672;50.834;6.286;2023-07-20T00:22:59;4.60;;;3.70;;
15142;SDS011;7672;50.834;6.286;2023-07-20T00:25:26;4.37;;;3.73;;
15142;SDS011;7672;50.834;6.286;2023-07-20T00:27:53;4.83;;;3.97;;
15142;SDS011;7672;50.834;6.286;2023-07-20T00:30:20;5.93;;;3.80;;
15142;SDS011;7672;50.834;6.286;2023-07-20T00:32:47;5.87;;;3.80;;
15142;SDS011;7672;50.834;6.286;2023-07-20T00:35:15;4.00;;;3.43;;
15142;SDS011;7672;50.834;6.286;2023-07-20T00:37:42;5.67;;;3.37;;
15142;SDS011;7672;50.834;6.286;2023-07-20T00:40:09;4.47;;;4.03;;
15142;SDS011;7672;50.834;6.286;2023-07-20T00:42:36;5.13;;;3.97;;
15142;SDS011;7672;50.834;6.286;2023-07-20T00:45:03;5.00;;;4.00;;
15142;SDS011;7672;50.834;6.286;2023-07-20T00:47:31;4.70;;;3.83;;
15142;SDS011;7672;50.834;6.286;2023-07-20T00:49:59;7.53;;;4.73;;
15142;SDS011;7672;50.834;6.286;2023-07-20T00:52:27;4.20;;;3.80;;
15142;SDS011;7672;50.834;6.286;2023-07-20T00:54:55;4.93;;;4.20;;
15142;SDS011;7672;50.834;6.286;2023-07-20T00:57:23;7.60;;;4.33;;
15142;SDS011;7672;50.834;6.286;2023-07-20T00:59:52;7.17;;;4.23;;
15142;SDS011;7672;50.834;6.286;2023-07-20T01:02:20;5.77;;;4.70;;
15142;SDS011;7672;50.834;6.286;2023-07-20T01:04:47;6.23;;;4.60;;
15142;SDS011;7672;50.834;6.286;2023-07-20T01:07:23;6.17;;;4.17;;
15142;SDS011;7672;50.834;6.286;2023-07-20T01:10:01;5.57;;;4.10;;
15142;SDS011;7672;50.834;6.286;2023-07-20T01:12:52;5.93;;;4.27;;
15142;SDS011;7672;50.834;6.286;2023-07-20T01:15:21;6.17;;;4.27;;
15142;SDS011;7672;50.834;6.286;2023-07-20T01:17:48;7.40;;;3.97;;
15142;SDS011;7672;50.834;6.286;2023-07-20T01:20:16;7.57;;;4.20;;
15142;SDS011;7672;50.834;6.286;2023-07-20T01:26:02;5.73;;;4.00;;
15142;SDS011;7672;50.834;6.286;2023-07-20T01:29:05;5.23;;;3.90;;
15142;SDS011;7672;50.834;6.286;2023-07-20T01:31:54;6.20;;;4.10;;
15142;SDS011;7672;50.834;6.286;2023-07-20T01:34:23;6.53;;;4.00;;
15142;SDS011;7672;50.834;6.286;2023-07-20T01:36:52;8.87;;;4.47;;
15142;SDS011;7672;50.834;6.286;2023-07-20T01:39:21;5.03;;;4.00;;
15142;SDS011;7672;50.834;6.286;2023-07-20T01:41:50;5.93;;;4.27;;
15142;SDS011;7672;50.834;6.286;2023-07-20T01:44:17;6.90;;;4.63;;
15142;SDS011;7672;50.834;6.286;2023-07-20T01:46:44;6.23;;;4.40;;
15142;SDS011;7672;50.834;6.286;2023-07-20T01:49:11;4.43;;;3.93;;
15142;SDS011;7672;50.834;6.286;2023-07-20T01:51:38;7.60;;;4.20;;
15142;SDS011;7672;50.834;6.286;2023-07-20T01:54:05;4.53;;;4.10;;
15142;SDS011;7672;50.834;6.286;2023-07-20T01:56:32;5.53;;;4.30;;
15142;SDS011;7672;50.834;6.286;2023-07-20T01:59:00;4.87;;;3.73;;
15142;SDS011;7672;50.834;6.286;2023-07-20T02:01:27;5.13;;;3.97;;
15142;SDS011;7672;50.834;6.286;2023-07-20T02:03:55;5.13;;;4.10;;
15142;SDS011;7672;50.834;6.286;2023-07-20T02:06:22;4.03;;;3.63;;
15142;SDS011;7672;50.834;6.286;2023-07-20T02:08:49;5.70;;;3.93;;
15142;SDS011;7672;50.834;6.286;2023-07-20T02:11:16;5.50;;;3.70;;
15142;SDS011;7672;50.834;6.286;2023-07-20T02:13:44;4.20;;;3.80;;
15142;SDS011;7672;50.834;6.286;2023-07-20T02:16:11;7.30;;;3.73;;
15142;SDS011;7672;50.834;6.286;2023-07-20T02:18:38;8.57;;;4.33;;
15142;SDS011;7672;50.834;6.286;2023-07-20T02:21:07;5.53;;;4.27;;
15142;SDS011;7672;50.834;6.286;2023-07-20T02:23:34;7.10;;;4.33;;
15142;SDS011;7672;50.834;6.286;2023-07-20T02:26:01;5.30;;;3.80;;
15142;SDS011;7672;50.834;6.286;2023-07-20T02:28:28;7.50;;;3.83;;
15142;SDS011;7672;50.834;6.286;2023-07-20T02:30:55;6.37;;;3.80;;
15142;SDS011;7672;50.834;6.286;2023-07-20T02:33:22;7.77;;;4.67;;
15142;SDS011;7672;50.834;6.286;2023-07-20T02:35:49;8.80;;;4.43;;
15142;SDS011;7672;50.834;6.286;2023-07-20T02:38:17;6.63;;;4.40;;
15142;SDS011;7672;50.834;6.286;2023-07-20T02:40:44;5.87;;;4.23;;
15142;SDS011;7672;50.834;6.286;2023-07-20T02:43:11;5.30;;;3.90;;
15142;SDS011;7672;50.834;6.286;2023-07-20T02:45:41;5.67;;;4.10;;
15142;SDS011;7672;50.834;6.286;2023-07-20T02:48:11;7.03;;;4.17;;
15142;SDS011;7672;50.834;6.286;2023-07-20T02:50:39;4.27;;;3.83;;
15142;SDS011;7672;50.834;6.286;2023-07-20T02:53:06;6.17;;;4.23;;
15142;SDS011;7672;50.834;6.286;2023-07-20T02:55:34;5.60;;;3.83;;
15142;SDS011;7672;50.834;6.286;2023-07-20T02:58:01;6.77;;;3.90;;
15142;SDS011;7672;50.834;6.286;2023-07-20T03:00:28;4.93;;;4.20;;
15142;SDS011;7672;50.834;6.286;2023-07-20T03:02:55;6.10;;;4.50;;
15142;SDS011;7672;50.834;6.286;2023-07-20T03:05:22;5.27;;;3.77;;
15142;SDS011;7672;50.834;6.286;2023-07-20T03:07:55;6.03;;;4.07;;
15142;SDS011;7672;50.834;6.286;2023-07-20T03:10:22;9.37;;;4.17;;
15142;SDS011;7672;50.834;6.286;2023-07-20T03:12:49;6.27;;;3.70;;
15142;SDS011;7672;50.834;6.286;2023-07-20T03:15:16;8.30;;;4.30;;
15142;SDS011;7672;50.834;6.286;2023-07-20T03:17:43;7.70;;;3.90;;
15142;SDS011;7672;50.834;6.286;2023-07-20T03:20:11;6.20;;;4.43;;
15142;SDS011;7672;50.834;6.286;2023-07-20T03:22:39;7.07;;;4.10;;
15142;SDS011;7672;50.834;6.286;2023-07-20T03:25:07;7.47;;;3.90;;
15142;SDS011;7672;50.834;6.286;2023-07-20T03:27:34;10.77;;;4.27;;
15142;SDS011;7672;50.834;6.286;2023-07-20T03:30:02;7.20;;;3.70;;
15142;SDS011;7672;50.834;6.286;2023-07-20T03:32:30;6.50;;;3.80;;
15142;SDS011;7672;50.834;6.286;2023-07-20T03:34:57;8.37;;;4.30;;
15142;SDS011;7672;50.834;6.286;2023-07-20T03:37:25;5.33;;;4.10;;
15142;SDS011;7672;50.834;6.286;2023-07-20T03:39:52;4.27;;;3.33;;
15142;SDS011;7672;50.834;6.286;2023-07-20T03:42:19;7.20;;;4.30;;
15142;SDS011;7672;50.834;6.286;2023-07-20T03:44:46;9.53;;;4.33;;
15142;SDS011;7672;50.834;6.286;2023-07-20T03:47:13;11.43;;;4.63;;
15142;SDS011;7672;50.834;6.286;2023-07-20T03:49:40;6.77;;;3.97;;
15142;SDS011;7672;50.834;6.286;2023-07-20T03:52:08;8.00;;;4.20;;
15142;SDS011;7672;50.834;6.286;2023-07-20T03:54:35;8.97;;;4.50;;
15142;SDS011;7672;50.834;6.286;2023-07-20T03:57:02;5.97;;;4.30;;
15142;SDS011;7672;50.834;6.286;2023-07-20T03:59:30;9.33;;;4.83;;
15142;SDS011;7672;50.834;6.286;2023-07-20T04:01:57;9.07;;;4.70;;
15142;SDS011;7672;50.834;6.286;2023-07-20T04:04:24;6.50;;;4.50;;
15142;SDS011;7672;50.834;6.286;2023-07-20T04:06:51;7.53;;;4.87;;
15142;SDS011;7672;50.834;6.286;2023-07-20T04:09:19;9.00;;;4.93;;
15142;SDS011;7672;50.834;6.286;2023-07-20T04:11:46;8.70;;;4.80;;
15142;SDS011;7672;50.834;6.286;2023-07-20T04:14:13;11.03;;;5.40;;
15142;SDS011;7672;50.834;6.286;2023-07-20T04:16:40;11.03;;;6.20;;
15142;SDS011;7672;50.834;6.286;2023-07-20T04:19:07;8.47;;;5.10;;
15142;SDS011;7672;50.834;6.286;2023-07-20T04:21:39;10.40;;;5.97;;
15142;SDS011;7672;50.834;6.286;2023-07-20T04:24:10;7.80;;;5.80;;
15142;SDS011;7672;50.834;6.286;2023-07-20T04:26:37;8.00;;;5.77;;
15142;SDS011;7672;50.834;6.286;2023-07-20T04:29:05;10.77;;;5.73;;
15142;SDS011;7672;50.834;6.286;2023-07-20T04:31:38;11.40;;;6.10;;
15142;SDS011;7672;50.834;6.286;2023-07-20T04:34:05;12.87;;;6.20;;
15142;SDS011;7672;50.834;6.286;2023-07-20T04:36:34;10.30;;;5.97;;
15142;SDS011;7672;50.834;6.286;2023-07-20T04:39:02;10.00;;;5.97;;
15142;SDS011;7672;50.834;6.286;2023-07-20T04:41:42;14.97;;;6.03;;
15142;SDS011;7672;50.834;6.286;2023-07-20T04:44:09;8.20;;;5.63;;
15142;SDS011;7672;50.834;6.286;2023-07-20T04:46:36;10.10;;;6.33;;
15142;SDS011;7672;50.834;6.286;2023-07-20T04:49:04;11.83;;;6.67;;
15142;SDS011;7672;50.834;6.286;2023-07-20T04:51:35;11.93;;;6.40;;
15142;SDS011;7672;50.834;6.286;2023-07-20T04:54:02;8.80;;;6.57;;
15142;SDS011;7672;50.834;6.286;2023-07-20T04:56:33;9.57;;;5.93;;
15142;SDS011;7672;50.834;6.286;2023-07-20T04:59:03;12.73;;;6.17;;
15142;SDS011;7672;50.834;6.286;2023-07-20T05:01:30;12.30;;;6.47;;
15142;SDS011;7672;50.834;6.286;2023-07-20T05:03:57;9.93;;;6.87;;
15142;SDS011;7672;50.834;6.286;2023-07-20T05:06:24;14.97;;;6.70;;
15142;SDS011;7672;50.834;6.286;2023-07-20T05:08:52;11.23;;;6.43;;
15142;SDS011;7672;50.834;6.286;2023-07-20T05:11:19;10.17;;;6.07;;
15142;SDS011;7672;50.834;6.286;2023-07-20T05:13:46;11.17;;;6.30;;
15142;SDS011;7672;50.834;6.286;2023-07-20T05:16:14;9.93;;;6.50;;
15142;SDS011;7672;50.834;6.286;2023-07-20T05:18:41;12.67;;;6.93;;
15142;SDS011;7672;50.834;6.286;2023-07-20T05:21:09;10.50;;;5.90;;
15142;SDS011;7672;50.834;6.286;2023-07-20T05:23:36;21.23;;;6.77;;
15142;SDS011;7672;50.834;6.286;2023-07-20T05:26:03;10.47;;;6.60;;
15142;SDS011;7672;50.834;6.286;2023-07-20T05:28:31;14.13;;;6.97;;
15142;SDS011;7672;50.834;6.286;2023-07-20T05:30:58;14.57;;;6.33;;
15142;SDS011;7672;50.834;6.286;2023-07-20T05:33:26;12.67;;;6.40;;
15142;SDS011;7672;50.834;6.286;2023-07-20T05:35:53;11.70;;;6.27;;
15142;SDS011;7672;50.834;6.286;2023-07-20T05:38:20;9.50;;;6.37;;
15142;SDS011;7672;50.834;6.286;2023-07-20T05:40:47;9.27;;;6.25;;
15142;SDS011;7672;50.834;6.286;2023-07-20T05:43:14;8.13;;;6.50;;
15142;SDS011;7672;50.834;6.286;2023-07-20T05:45:41;10.27;;;6.45;;
15142;SDS011;7672;50.834;6.286;2023-07-20T05:48:10;10.45;;;6.43;;
15142;SDS011;7672;50.834;6.286;2023-07-20T05:50:41;7.60;;;6.22;;
15142;SDS011;7672;50.834;6.286;2023-07-20T05:53:10;10.52;;;6.43;;
15142;SDS011;7672;50.834;6.286;2023-07-20T05:55:37;10.65;;;6.45;;
15142;SDS011;7672;50.834;6.286;2023-07-20T05:58:06;9.50;;;6.68;;
15142;SDS011;7672;50.834;6.286;2023-07-20T06:00:33;10.63;;;6.78;;
15142;SDS011;7672;50.834;6.286;2023-07-20T06:03:00;9.25;;;6.82;;
15142;SDS011;7672;50.834;6.286;2023-07-20T06:05:27;9.88;;;6.80;;
15142;SDS011;7672;50.834;6.286;2023-07-20T06:07:56;7.50;;;6.28;;
15142;SDS011;7672;50.834;6.286;2023-07-20T06:10:24;8.73;;;6.45;;
15142;SDS011;7672;50.834;6.286;2023-07-20T06:12:51;8.48;;;7.03;;
15142;SDS011;7672;50.834;6.286;2023-07-20T06:15:28;8.57;;;7.55;;
15142;SDS011;7672;50.834;6.286;2023-07-20T06:18:01;9.85;;;7.82;;
15142;SDS011;7672;50.834;6.286;2023-07-20T06:20:30;10.32;;;7.90;;
15142;SDS011;7672;50.834;6.286;2023-07-20T06:22:57;9.88;;;8.40;;
15142;SDS011;7672;50.834;6.286;2023-07-20T06:25:24;10.05;;;8.05;;
15142;SDS011;7672;50.834;6.286;2023-07-20T06:27:51;19.17;;;17.15;;
15142;SDS011;7672;50.834;6.286;2023-07-20T06:30:18;11.05;;;9.93;;
15142;SDS011;7672;50.834;6.286;2023-07-20T06:32:46;9.82;;;9.02;;
15142;SDS011;7672;50.834;6.286;2023-07-20T06:35:13;11.00;;;8.85;;
15142;SDS011;7672;50.834;6.286;2023-07-20T06:37:41;9.55;;;8.18;;
15142;SDS011;7672;50.834;6.286;2023-07-20T06:40:09;9.27;;;8.48;;
15142;SDS011;7672;50.834;6.286;2023-07-20T06:42:39;9.30;;;8.35;;
15142;SDS011;7672;50.834;6.286;2023-07-20T06:45:09;13.90;;;9.05;;
15142;SDS011;7672;50.834;6.286;2023-07-20T06:47:38;9.30;;;8.27;;
15142;SDS011;7672;50.834;6.286;2023-07-20T06:50:06;12.10;;;8.48;;
15142;SDS011;7672;50.834;6.286;2023-07-20T06:52:34;10.23;;;8.43;;
15142;SDS011;7672;50.834;6.286;2023-07-20T06:55:01;10.10;;;8.68;;
15142;SDS011;7672;50.834;6.286;2023-07-20T06:57:31;10.02;;;8.57;;
15142;SDS011;7672;50.834;6.286;2023-07-20T06:59:59;9.52;;;8.52;;
15142;SDS011;7672;50.834;6.286;2023-07-20T07:02:26;9.35;;;8.35;;
15142;SDS011;7672;50.834;6.286;2023-07-20T07:04:53;9.65;;;8.15;;
15142;SDS011;7672;50.834;6.286;2023-07-20T07:07:23;10.63;;;8.30;;
15142;SDS011;7672;50.834;6.286;2023-07-20T07:09:53;9.38;;;8.38;;
15142;SDS011;7672;50.834;6.286;2023-07-20T07:12:20;9.48;;;8.55;;
15142;SDS011;7672;50.834;6.286;2023-07-20T07:14:47;10.13;;;9.15;;
15142;SDS011;7672;50.834;6.286;2023-07-20T07:17:15;8.85;;;7.90;;
15142;SDS011;7672;50.834;6.286;2023-07-20T07:19:45;8.02;;;7.20;;
15142;SDS011;7672;50.834;6.286;2023-07-20T07:22:15;8.18;;;7.15;;
15142;SDS011;7672;50.834;6.286;2023-07-20T07:24:42;7.82;;;7.05;;
15142;SDS011;7672;50.834;6.286;2023-07-20T07:27:09;8.07;;;7.28;;
15142;SDS011;7672;50.834;6.286;2023-07-20T07:29:36;7.28;;;6.68;;
15142;SDS011;7672;50.834;6.286;2023-07-20T07:32:03;7.18;;;6.47;;
15142;SDS011;7672;50.834;6.286;2023-07-20T07:34:31;7.30;;;6.57;;
15142;SDS011;7672;50.834;6.286;2023-07-20T07:37:00;7.55;;;6.80;;
15142;SDS011;7672;50.834;6.286;2023-07-20T07:39:28;7.13;;;6.53;;
15142;SDS011;7672;50.834;6.286;2023-07-20T07:42:01;7.82;;;6.57;;
15142;SDS011;7672;50.834;6.286;2023-07-20T07:44:28;7.30;;;6.60;;
15142;SDS011;7672;50.834;6.286;2023-07-20T07:46:55;5.90;;;5.47;;
15142;SDS011;7672;50.834;6.286;2023-07-20T07:49:22;7.20;;;6.50;;
15142;SDS011;7672;50.834;6.286;2023-07-20T07:51:49;6.47;;;5.88;;
15142;SDS011;7672;50.834;6.286;2023-07-20T07:54:16;7.47;;;6.75;;
15142;SDS011;7672;50.834;6.286;2023-07-20T07:56:43;7.82;;;6.00;;
15142;SDS011;7672;50.834;6.286;2023-07-20T07:59:11;5.78;;;5.32;;
15142;SDS011;7672;50.834;6.286;2023-07-20T08:01:38;6.03;;;5.53;;
15142;SDS011;7672;50.834;6.286;2023-07-20T08:04:05;5.95;;;5.35;;
15142;SDS011;7672;50.834;6.286;2023-07-20T08:06:32;6.25;;;5.53;;
15142;SDS011;7672;50.834;6.286;2023-07-20T08:08:59;4.60;;;4.25;;
15142;SDS011;7672;50.834;6.286;2023-07-20T08:11:27;4.88;;;3.70;;
15142;SDS011;7672;50.834;6.286;2023-07-20T08:13:57;4.60;;;3.80;;
15142;SDS011;7672;50.834;6.286;2023-07-20T08:16:26;4.43;;;4.03;;
15142;SDS011;7672;50.834;6.286;2023-07-20T08:18:54;5.72;;;5.15;;
15142;SDS011;7672;50.834;6.286;2023-07-20T08:21:21;5.35;;;4.85;;
15142;SDS011;7672;50.834;6.286;2023-07-20T08:23:48;5.13;;;4.72;;
15142;SDS011;7672;50.834;6.286;2023-07-20T08:26:15;4.88;;;4.22;;
15142;SDS011;7672;50.834;6.286;2023-07-20T08:28:44;3.70;;;3.17;;
15142;SDS011;7672;50.834;6.286;2023-07-20T08:31:12;3.35;;;3.05;;
15142;SDS011;7672;50.834;6.286;2023-07-20T08:33:39;2.22;;;2.00;;
15142;SDS011;7672;50.834;6.286;2023-07-20T08:36:06;2.45;;;1.95;;
15142;SDS011;7672;50.834;6.286;2023-07-20T08:38:37;2.70;;;2.22;;
15142;SDS011;7672;50.834;6.286;2023-07-20T08:41:04;3.33;;;2.90;;
15142;SDS011;7672;50.834;6.286;2023-07-20T08:43:31;4.20;;;3.80;;
15142;SDS011;7672;50.834;6.286;2023-07-20T08:46:01;3.22;;;2.90;;
15142;SDS011;7672;50.834;6.286;2023-07-20T08:48:30;3.67;;;2.97;;
15142;SDS011;7672;50.834;6.286;2023-07-20T08:50:57;4.40;;;2.75;;
15142;SDS011;7672;50.834;6.286;2023-07-20T08:53:27;3.55;;;3.20;;
15142;SDS011;7672;50.834;6.286;2023-07-20T08:55:56;3.10;;;2.88;;
15142;SDS011;7672;50.834;6.286;2023-07-20T08:58:25;4.22;;;3.03;;
15142;SDS011;7672;50.834;6.286;2023-07-20T09:00:53;3.72;;;3.05;;
15142;SDS011;7672;50.834;6.286;2023-07-20T09:03:21;2.72;;;2.20;;
15142;SDS011;7672;50.834;6.286;2023-07-20T09:05:49;2.70;;;2.50;;
15142;SDS011;7672;50.834;6.286;2023-07-20T09:08:16;3.42;;;3.13;;
15142;SDS011;7672;50.834;6.286;2023-07-20T09:10:43;2.78;;;2.55;;
15142;SDS011;7672;50.834;6.286;2023-07-20T09:13:13;1.90;;;1.67;;
15142;SDS011;7672;50.834;6.286;2023-07-20T09:15:52;2.45;;;2.00;;
15142;SDS011;7672;50.834;6.286;2023-07-20T09:18:27;3.30;;;2.28;;
15142;SDS011;7672;50.834;6.286;2023-07-20T09:21:03;2.60;;;2.40;;
15142;SDS011;7672;50.834;6.286;2023-07-20T09:23:35;2.97;;;2.63;;
15142;SDS011;7672;50.834;6.286;2023-07-20T09:26:11;2.35;;;2.22;;
15142;SDS011;7672;50.834;6.286;2023-07-20T09:28:44;2.97;;;2.78;;
15142;SDS011;7672;50.834;6.286;2023-07-20T09:31:20;6.55;;;3.13;;
15142;SDS011;7672;50.834;6.286;2023-07-20T09:33:48;3.38;;;2.67;;
15142;SDS011;7672;50.834;6.286;2023-07-20T09:36:21;3.42;;;3.13;;
15142;SDS011;7672;50.834;6.286;2023-07-20T09:39:09;3.67;;;2.72;;
15142;SDS011;7672;50.834;6.286;2023-07-20T09:41:39;2.45;;;2.25;;
15142;SDS011;7672;50.834;6.286;2023-07-20T09:44:11;2.78;;;2.42;;
15142;SDS011;7672;50.834;6.286;2023-07-20T09:46:47;3.20;;;2.90;;
15142;SDS011;7672;50.834;6.286;2023-07-20T09:49:18;4.05;;;2.80;;
15142;SDS011;7672;50.834;6.286;2023-07-20T09:51:49;2.50;;;2.38;;
15142;SDS011;7672;50.834;6.286;2023-07-20T09:54:16;3.15;;;2.72;;
15142;SDS011;7672;50.834;6.286;2023-07-20T09:56:44;4.47;;;3.03;;
15142;SDS011;7672;50.834;6.286;2023-07-20T09:59:15;3.00;;;2.80;;
15142;SDS011;7672;50.834;6.286;2023-07-20T10:01:42;2.97;;;2.75;;
15142;SDS011;7672;50.834;6.286;2023-07-20T10:04:10;2.75;;;2.55;;
15142;SDS011;7672;50.834;6.286;2023-07-20T10:06:42;3.42;;;2.58;;
15142;SDS011;7672;50.834;6.286;2023-07-20T10:09:13;2.40;;;2.20;;
15142;SDS011;7672;50.834;6.286;2023-07-20T10:11:49;2.40;;;2.20;;
15142;SDS011;7672;50.834;6.286;2023-07-20T10:14:38;3.65;;;2.42;;
15142;SDS011;7672;50.834;6.286;2023-07-20T10:17:17;2.40;;;2.08;;
15142;SDS011;7672;50.834;6.286;2023-07-20T10:19:49;2.25;;;2.05;;
15142;SDS011;7672;50.834;6.286;2023-07-20T10:22:24;3.22;;;2.53;;
15142;SDS011;7672;50.834;6.286;2023-07-20T10:24:53;2.40;;;2.20;;
15142;SDS011;7672;50.834;6.286;2023-07-20T10:27:21;4.00;;;2.50;;
15142;SDS011;7672;50.834;6.286;2023-07-20T10:29:48;2.58;;;2.38;;
15142;SDS011;7672;50.834;6.286;2023-07-20T10:32:18;2.47;;;2.15;;
15142;SDS011;7672;50.834;6.286;2023-07-20T10:34:50;2.80;;;2.00;;
15142;SDS011;7672;50.834;6.286;2023-07-20T10:40:25;2.33;;;1.92;;
15142;SDS011;7672;50.834;6.286;2023-07-20T10:43:01;2.45;;;2.25;;
15142;SDS011;7672;50.834;6.286;2023-07-20T10:48:21;2.45;;;2.25;;
15142;SDS011;7672;50.834;6.286;2023-07-20T10:51:13;3.75;;;2.13;;
15142;SDS011;7672;50.834;6.286;2023-07-20T10:53:50;2.92;;;2.72;;
15142;SDS011;7672;50.834;6.286;2023-07-20T10:56:19;2.67;;;2.40;;
15142;SDS011;7672;50.834;6.286;2023-07-20T10:58:49;2.72;;;2.53;;
15142;SDS011;7672;50.834;6.286;2023-07-20T11:01:16;2.63;;;2.42;;
15142;SDS011;7672;50.834;6.286;2023-07-20T11:03:48;2.75;;;2.40;;
15142;SDS011;7672;50.834;6.286;2023-07-20T11:11:34;2.90;;;2.70;;
15142;SDS011;7672;50.834;6.286;2023-07-20T11:14:04;2.67;;;2.40;;
15142;SDS011;7672;50.834;6.286;2023-07-20T11:16:38;2.63;;;2.42;;
15142;SDS011;7672;50.834;6.286;2023-07-20T11:19:17;2.22;;;2.03;;
15142;SDS011;7672;50.834;6.286;2023-07-20T11:21:55;2.45;;;2.35;;
15142;SDS011;7672;50.834;6.286;2023-07-20T11:24:27;2.25;;;2.10;;
15142;SDS011;7672;50.834;6.286;2023-07-20T11:26:54;2.38;;;2.22;;
15142;SDS011;7672;50.834;6.286;2023-07-20T11:29:22;2.60;;;2.40;;
15142;SDS011;7672;50.834;6.286;2023-07-20T11:31:58;3.10;;;2.10;;
15142;SDS011;7672;50.834;6.286;2023-07-20T11:34:31;4.10;;;2.33;;
15142;SDS011;7672;50.834;6.286;2023-07-20T11:37:00;2.35;;;2.15;;
15142;SDS011;7672;50.834;6.286;2023-07-20T11:39:30;2.95;;;2.00;;
15142;SDS011;7672;50.834;6.286;2023-07-20T11:41:58;2.78;;;2.58;;
15142;SDS011;7672;50.834;6.286;2023-07-20T11:44:28;2.97;;;2.78;;
15142;SDS011;7672;50.834;6.286;2023-07-20T11:47:14;4.18;;;3.60;;
15142;SDS011;7672;50.834;6.286;2023-07-20T11:49:42;3.65;;;2.88;;
15142;SDS011;7672;50.834;6.286;2023-07-20T11:52:11;2.63;;;2.42;;
15142;SDS011;7672;50.834;6.286;2023-07-20T11:54:42;2.70;;;2.40;;
15142;SDS011;7672;50.834;6.286;2023-07-20T11:57:18;2.60;;;2.40;;
15142;SDS011;7672;50.834;6.286;2023-07-20T11:59:56;3.75;;;2.80;;
15142;SDS011;7672;50.834;6.286;2023-07-20T12:02:26;2.63;;;2.10;;
15142;SDS011;7672;50.834;6.286;2023-07-20T12:04:55;2.90;;;2.50;;
15142;SDS011;7672;50.834;6.286;2023-07-20T12:07:25;2.10;;;1.90;;
15142;SDS011;7672;50.834;6.286;2023-07-20T12:12:34;2.10;;;2.00;;
15142;SDS011;7672;50.834;6.286;2023-07-20T12:15:25;2.40;;;2.20;;
15142;SDS011;7672;50.834;6.286;2023-07-20T12:17:53;3.03;;;1.88;;
15142;SDS011;7672;50.834;6.286;2023-07-20T12:20:27;3.25;;;2.00;;
15142;SDS011;7672;50.834;6.286;2023-07-20T12:23:07;2.78;;;1.75;;
15142;SDS011;7672;50.834;6.286;2023-07-20T12:25:37;2.28;;;2.00;;
15142;SDS011;7672;50.834;6.286;2023-07-20T12:28:09;2.28;;;2.10;;
15142;SDS011;7672;50.834;6.286;2023-07-20T12:30:39;2.95;;;1.95;;
15142;SDS011;7672;50.834;6.286;2023-07-20T12:33:08;1.88;;;1.60;;
15142;SDS011;7672;50.834;6.286;2023-07-20T12:35:35;1.98;;;1.77;;
15142;SDS011;7672;50.834;6.286;2023-07-20T12:38:03;1.88;;;1.73;;
15142;SDS011;7672;50.834;6.286;2023-07-20T12:40:31;1.65;;;1.55;;
15142;SDS011;7672;50.834;6.286;2023-07-20T12:42:58;1.83;;;1.70;;
15142;SDS011;7672;50.834;6.286;2023-07-20T12:45:25;2.00;;;1.63;;
15142;SDS011;7672;50.834;6.286;2023-07-20T12:47:53;3.67;;;1.60;;
15142;SDS011;7672;50.834;6.286;2023-07-20T12:50:20;1.70;;;1.60;;
15142;SDS011;7672;50.834;6.286;2023-07-20T12:52:47;1.55;;;1.45;;
15142;SDS011;7672;50.834;6.286;2023-07-20T12:55:14;2.53;;;1.42;;
15142;SDS011;7672;50.834;6.286;2023-07-20T12:57:41;1.90;;;1.70;;
15142;SDS011;7672;50.834;6.286;2023-07-20T13:00:09;2.08;;;1.70;;
15142;SDS011;7672;50.834;6.286;2023-07-20T13:02:38;1.42;;;1.33;;
15142;SDS011;7672;50.834;6.286;2023-07-20T13:05:05;4.40;;;1.38;;
15142;SDS011;7672;50.834;6.286;2023-07-20T13:07:33;1.40;;;1.30;;
15142;SDS011;7672;50.834;6.286;2023-07-20T13:10:09;1.58;;;1.48;;
15142;SDS011;7672;50.834;6.286;2023-07-20T13:12:37;1.70;;;1.60;;
15142;SDS011;7672;50.834;6.286;2023-07-20T13:15:06;1.23;;;1.23;;
15142;SDS011;7672;50.834;6.286;2023-07-20T13:17:36;3.92;;;1.00;;
15142;SDS011;7672;50.834;6.286;2023-07-20T13:20:08;1.98;;;1.30;;
15142;SDS011;7672;50.834;6.286;2023-07-20T13:22:37;1.38;;;1.30;;
15142;SDS011;7672;50.834;6.286;2023-07-20T13:25:05;1.55;;;1.45;;
15142;SDS011;7672;50.834;6.286;2023-07-20T13:27:34;1.52;;;1.42;;
15142;SDS011;7672;50.834;6.286;2023-07-20T13:30:04;1.48;;;1.38;;
15142;SDS011;7672;50.834;6.286;2023-07-20T13:32:36;1.50;;;1.40;;
15142;SDS011;7672;50.834;6.286;2023-07-20T13:35:03;2.33;;;1.38;;
15142;SDS011;7672;50.834;6.286;2023-07-20T13:37:31;1.83;;;1.40;;
15142;SDS011;7672;50.834;6.286;2023-07-20T13:39:58;1.40;;;1.30;;
15142;SDS011;7672;50.834;6.286;2023-07-20T13:42:25;2.05;;;1.38;;
15142;SDS011;7672;50.834;6.286;2023-07-20T13:44:52;1.20;;;1.20;;
15142;SDS011;7672;50.834;6.286;2023-07-20T13:47:20;1.20;;;1.20;;
15142;SDS011;7672;50.834;6.286;2023-07-20T13:49:48;1.13;;;1.13;;
15142;SDS011;7672;50.834;6.286;2023-07-20T13:52:29;1.55;;;1.20;;
15142;SDS011;7672;50.834;6.286;2023-07-20T13:54:59;1.63;;;1.42;;
15142;SDS011;7672;50.834;6.286;2023-07-20T13:57:27;2.65;;;1.50;;
15142;SDS011;7672;50.834;6.286;2023-07-20T13:59:54;3.15;;;1.40;;
15142;SDS011;7672;50.834;6.286;2023-07-20T14:02:21;1.58;;;1.48;;
15142;SDS011;7672;50.834;6.286;2023-07-20T14:04:51;1.83;;;1.60;;
15142;SDS011;7672;50.834;6.286;2023-07-20T14:07:38;2.35;;;1.48;;
15142;SDS011;7672;50.834;6.286;2023-07-20T14:10:06;1.60;;;1.50;;
15142;SDS011;7672;50.834;6.286;2023-07-20T14:12:36;1.80;;;1.52;;
15142;SDS011;7672;50.834;6.286;2023-07-20T14:15:04;1.33;;;1.33;;
15142;SDS011;7672;50.834;6.286;2023-07-20T14:17:32;3.42;;;2.70;;
15142;SDS011;7672;50.834;6.286;2023-07-20T14:19:59;3.53;;;1.63;;
15142;SDS011;7672;50.834;6.286;2023-07-20T14:22:26;1.80;;;1.70;;
15142;SDS011;7672;50.834;6.286;2023-07-20T14:24:53;1.10;;;1.10;;
15142;SDS011;7672;50.834;6.286;2023-07-20T14:27:20;1.50;;;1.40;;
15142;SDS011;7672;50.834;6.286;2023-07-20T14:29:47;1.67;;;1.40;;
15142;SDS011;7672;50.834;6.286;2023-07-20T14:32:15;1.60;;;1.50;;
15142;SDS011;7672;50.834;6.286;2023-07-20T14:34:42;1.55;;;1.45;;
15142;SDS011;7672;50.834;6.286;2023-07-20T14:37:10;2.85;;;1.73;;
15142;SDS011;7672;50.834;6.286;2023-07-20T14:39:40;3.33;;;1.63;;
15142;SDS011;7672;50.834;6.286;2023-07-20T14:42:07;1.50;;;1.40;;
15142;SDS011;7672;50.834;6.286;2023-07-20T14:44:34;1.50;;;1.40;;
15142;SDS011;7672;50.834;6.286;2023-07-20T14:47:03;1.40;;;1.40;;
15142;SDS011;7672;50.834;6.286;2023-07-20T14:49:40;1.85;;;1.50;;
15142;SDS011;7672;50.834;6.286;2023-07-20T14:52:08;1.70;;;1.50;;
15142;SDS011;7672;50.834;6.286;2023-07-20T14:54:38;1.60;;;1.50;;
15142;SDS011;7672;50.834;6.286;2023-07-20T14:57:05;1.60;;;1.50;;
15142;SDS011;7672;50.834;6.286;2023-07-20T14:59:41;1.60;;;1.50;;
15142;SDS011;7672;50.834;6.286;2023-07-20T15:02:08;2.58;;;1.80;;
15142;SDS011;7672;50.834;6.286;2023-07-20T15:04:35;2.05;;;1.60;;
15142;SDS011;7672;50.834;6.286;2023-07-20T15:07:03;1.88;;;1.75;;
15142;SDS011;7672;50.834;6.286;2023-07-20T15:09:30;1.95;;;1.85;;
15142;SDS011;7672;50.834;6.286;2023-07-20T15:11:58;5.50;;;2.47;;
15142;SDS011;7672;50.834;6.286;2023-07-20T15:14:25;4.20;;;2.08;;
15142;SDS011;7672;50.834;6.286;2023-07-20T15:16:52;2.15;;;1.92;;
15142;SDS011;7672;50.834;6.286;2023-07-20T15:19:19;2.33;;;2.13;;
15142;SDS011;7672;50.834;6.286;2023-07-20T15:21:48;2.08;;;1.90;;
15142;SDS011;7672;50.834;6.286;2023-07-20T15:24:15;3.15;;;2.13;;
15142;SDS011;7672;50.834;6.286;2023-07-20T15:26:42;2.33;;;1.70;;
15142;SDS011;7672;50.834;6.286;2023-07-20T15:29:09;2.20;;;2.10;;